createdAt,value
2018-12-27T00:01:17.026Z,3.92
2018-12-27T00:06:06.055Z,3.92
2018-12-27T00:10:55.121Z,3.88
2018-12-27T00:15:50.109Z,3.96
2018-12-27T00:20:39.423Z,3.74
2018-12-27T00:25:29.886Z,3.86
2018-12-27T00:30:20.652Z,3.83
2018-12-27T00:35:10.817Z,3.79
2018-12-27T00:40:00.120Z,3.77
2018-12-27T00:44:51.730Z,3.87
2018-12-27T00:49:41.329Z,3.98
2018-12-27T00:54:31.025Z,3.73
2018-12-27T00:59:20.702Z,3.86
2018-12-27T01:04:10.875Z,3.77
2018-12-27T01:09:01.900Z,4.05
2018-12-27T01:13:52.786Z,4.02
2018-12-27T01:18:42.054Z,3.92
2018-12-27T01:23:31.517Z,3.68
2018-12-27T01:28:25.018Z,3.74
2018-12-27T01:33:18.739Z,3.82
2018-12-27T01:38:06.139Z,3.80
2018-12-27T01:42:56.605Z,3.92
2018-12-27T01:47:46.000Z,3.98
2018-12-27T01:52:35.791Z,3.89
2018-12-27T01:57:24.968Z,3.97
2018-12-27T02:02:16.066Z,3.89
2018-12-27T02:07:09.357Z,3.93
2018-12-27T02:12:03.943Z,4.16
2018-12-27T02:16:58.708Z,4.19
2018-12-27T02:21:49.257Z,4.00
2018-12-27T02:26:47.785Z,4.12
2018-12-27T02:31:37.835Z,4.04
2018-12-27T02:36:29.165Z,3.96
2018-12-27T02:41:18.972Z,4.24
2018-12-27T02:46:10.686Z,4.03
2018-12-27T02:51:15.379Z,4.16
2018-12-27T02:56:10.197Z,4.12
2018-12-27T03:00:59.893Z,4.07
2018-12-27T03:05:50.367Z,4.16
2018-12-27T03:10:40.355Z,4.03
2018-12-27T03:15:31.604Z,3.96
2018-12-27T03:20:22.847Z,3.89
2018-12-27T03:25:12.665Z,4.22
2018-12-27T03:30:02.524Z,4.20
2018-12-27T03:34:55.921Z,4.19
2018-12-27T03:39:47.431Z,4.22
2018-12-27T03:44:39.506Z,3.99
2018-12-27T03:49:34.578Z,4.02
2018-12-27T03:54:26.077Z,4.25
2018-12-27T03:59:22.824Z,4.10
2018-12-27T04:04:12.402Z,4.23
2018-12-27T04:09:01.831Z,4.08
2018-12-27T04:13:53.881Z,3.93
2018-12-27T04:18:43.637Z,3.80
2018-12-27T04:23:41.127Z,3.96
2018-12-27T04:28:30.767Z,3.88
2018-12-27T04:33:20.817Z,4.00
2018-12-27T04:38:10.562Z,3.95
2018-12-27T04:43:13.472Z,3.86
2018-12-27T04:48:04.663Z,3.92
2018-12-27T04:52:58.017Z,3.82
2018-12-27T04:57:46.961Z,3.90
2018-12-27T05:02:36.014Z,3.89
2018-12-27T05:07:26.965Z,3.87
2018-12-27T05:12:17.227Z,3.92
2018-12-27T05:17:06.822Z,3.92
2018-12-27T05:21:59.074Z,3.98
2018-12-27T05:26:48.038Z,3.68
2018-12-27T05:31:39.041Z,3.65
2018-12-27T05:36:28.247Z,3.63
2018-12-27T05:41:18.891Z,3.30
2018-12-27T05:46:39.776Z,3.28
2018-12-27T05:51:53.844Z,3.34
2018-12-27T05:56:44.008Z,3.53
2018-12-27T06:01:33.775Z,3.60
2018-12-27T06:06:26.328Z,3.43
2018-12-27T06:11:16.233Z,3.52
2018-12-27T06:16:07.569Z,3.81
2018-12-27T06:20:58.149Z,4.19
2018-12-27T06:25:49.661Z,3.95
2018-12-27T06:30:41.849Z,4.22
2018-12-27T06:35:31.331Z,4.20
2018-12-27T06:40:23.590Z,4.23
2018-12-27T06:45:13.918Z,4.18
2018-12-27T06:50:06.763Z,4.32
2018-12-27T06:55:10.559Z,4.50
2018-12-27T07:00:05.466Z,4.58
2018-12-27T07:05:19.643Z,4.61
2018-12-27T07:10:23.587Z,4.82
2018-12-27T07:15:16.199Z,4.80
2018-12-27T07:20:05.513Z,5.05
2018-12-27T07:24:58.240Z,4.92
2018-12-27T07:29:47.438Z,4.79
2018-12-27T07:34:38.900Z,4.83
2018-12-27T07:39:32.812Z,4.96
2018-12-27T07:44:24.505Z,4.85
2018-12-27T07:49:14.373Z,4.76
2018-12-27T07:54:05.807Z,5.51
2018-12-27T07:58:57.871Z,5.05
2018-12-27T08:03:54.131Z,4.95
2018-12-27T08:20:22.097Z,5.16
2018-12-27T08:31:16.268Z,5.47
2018-12-27T08:37:03.153Z,5.57
2018-12-27T08:53:12.738Z,5.73
2018-12-27T09:03:18.529Z,5.98
2018-12-27T09:08:12.665Z,6.15
2018-12-27T09:13:02.558Z,6.22
2018-12-27T09:17:54.503Z,6.09
2018-12-27T09:22:43.508Z,6.01
2018-12-27T09:27:38.379Z,6.26
2018-12-27T09:32:31.612Z,6.22
2018-12-27T09:37:21.714Z,6.42
2018-12-27T09:42:10.695Z,6.75
2018-12-27T09:47:01.317Z,7.64
2018-12-27T09:51:50.442Z,8.00
2018-12-27T09:56:41.101Z,8.44
2018-12-27T10:01:31.275Z,8.70
2018-12-27T10:06:20.687Z,9.25
2018-12-27T10:11:09.920Z,9.47
2018-12-27T10:15:59.384Z,9.44
2018-12-27T10:20:48.393Z,9.57
2018-12-27T10:25:39.133Z,9.67
2018-12-27T10:30:38.841Z,9.86
2018-12-27T10:46:22.759Z,10.11
2018-12-27T10:56:50.274Z,10.71
2018-12-27T11:01:39.000Z,11.01
2018-12-27T11:06:30.909Z,10.83
2018-12-27T11:12:40.972Z,10.38
2018-12-27T11:17:41.838Z,10.67
2018-12-27T11:23:34.779Z,11.16
2018-12-27T13:19:11.141Z,9.77
2018-12-27T13:24:17.925Z,9.61
2018-12-27T13:29:24.993Z,9.68
2018-12-27T13:40:36.748Z,10.06
2018-12-27T13:50:53.902Z,10.25
2018-12-27T13:55:48.113Z,9.98
2018-12-27T14:00:41.012Z,9.14
2018-12-27T14:05:37.927Z,9.13
2018-12-27T14:10:27.997Z,9.13
2018-12-27T14:15:17.546Z,8.57
2018-12-27T14:20:07.909Z,8.21
2018-12-27T14:24:58.102Z,7.93
2018-12-27T14:29:50.813Z,7.63
2018-12-27T14:34:43.370Z,7.52
2018-12-27T14:39:33.981Z,7.14
2018-12-27T14:44:23.886Z,7.18
2018-12-27T14:49:14.299Z,6.93
2018-12-27T14:54:05.875Z,6.72
2018-12-27T14:58:56.087Z,6.48
2018-12-27T15:03:49.865Z,6.42
2018-12-27T15:08:39.876Z,6.43
2018-12-27T15:13:54.522Z,6.27
2018-12-27T15:18:46.123Z,6.36
2018-12-27T15:23:38.036Z,6.38
2018-12-27T15:28:28.827Z,6.38
2018-12-27T15:33:23.781Z,6.27
2018-12-27T15:38:23.787Z,6.26
2018-12-27T15:43:15.316Z,6.38
2018-12-27T15:48:07.663Z,6.28
2018-12-27T15:52:57.165Z,6.35
2018-12-27T15:57:47.957Z,6.37
2018-12-27T16:03:43.698Z,6.24
2018-12-27T16:09:46.414Z,6.31
2018-12-27T16:21:26.692Z,6.31
2018-12-27T16:26:50.952Z,6.23
2018-12-27T16:32:28.838Z,6.18
2018-12-27T16:37:46.017Z,6.40
2018-12-27T16:43:16.366Z,6.31
2018-12-27T16:49:18.420Z,6.19
2018-12-27T16:54:39.002Z,6.33
2018-12-27T17:05:40.150Z,6.07
2018-12-27T17:10:30.696Z,6.01
2018-12-27T17:15:23.426Z,5.97
2018-12-27T17:20:16.242Z,5.79
2018-12-27T17:25:06.066Z,5.87
2018-12-27T17:30:01.297Z,5.63
2018-12-27T17:35:32.584Z,5.67
2018-12-27T17:40:27.965Z,5.70
2018-12-27T17:46:09.278Z,5.52
2018-12-27T17:51:25.792Z,5.67
2018-12-27T18:02:25.123Z,5.30
2018-12-27T18:07:37.865Z,5.21
2018-12-27T18:13:23.587Z,5.02
2018-12-27T18:18:23.923Z,5.00
2018-12-27T18:23:33.523Z,4.76
2018-12-27T18:29:10.048Z,4.82
2018-12-27T18:34:02.450Z,4.75
2018-12-27T18:39:01.304Z,4.84
2018-12-27T18:43:59.592Z,4.71
2018-12-27T18:48:56.291Z,4.81
2018-12-27T18:53:59.760Z,4.90
2018-12-27T18:59:03.350Z,4.78
2018-12-27T19:04:30.012Z,4.72
2018-12-27T19:09:42.035Z,4.71
2018-12-27T19:15:31.807Z,4.53
2018-12-27T19:20:34.120Z,4.69
2018-12-27T19:25:44.941Z,4.72
2018-12-27T19:30:51.029Z,4.58
2018-12-27T19:42:47.022Z,3.99
2018-12-27T19:55:06.462Z,4.13
2018-12-27T20:06:30.202Z,3.73
2018-12-27T20:12:33.225Z,3.40
2018-12-27T20:18:43.693Z,3.27
2018-12-27T20:52:23.767Z,3.63
2018-12-27T20:57:21.263Z,3.51
2018-12-27T21:20:43.259Z,3.51
2018-12-27T21:34:01.310Z,3.69
2018-12-27T21:45:53.708Z,3.52
2018-12-27T21:51:20.089Z,3.25
2018-12-27T21:56:43.451Z,3.32
2018-12-27T22:02:51.950Z,3.17
2018-12-27T22:14:35.976Z,3.33
2018-12-27T22:20:18.702Z,3.37
2018-12-27T22:26:06.247Z,3.24
2018-12-27T22:31:33.640Z,3.45
2018-12-27T22:36:56.464Z,3.51
2018-12-27T22:42:03.642Z,3.36
2018-12-27T22:53:18.690Z,3.41
2018-12-27T22:58:56.550Z,3.29
2018-12-27T23:04:39.026Z,3.40
2018-12-27T23:16:40.510Z,3.32
2018-12-27T23:21:42.908Z,3.31
2018-12-27T23:26:45.911Z,3.23
2018-12-27T23:50:02.997Z,3.06
2018-12-27T23:55:05.311Z,3.06
